createdAt,value
2018-11-01T00:00:29.896Z,0
2018-11-01T00:01:39.064Z,0
2018-11-01T00:02:48.820Z,0
2018-11-01T00:03:58.246Z,0
2018-11-01T00:05:07.932Z,0
2018-11-01T00:06:17.920Z,0
2018-11-01T00:07:27.613Z,0
2018-11-01T00:08:37.055Z,0
2018-11-01T00:09:46.765Z,0
2018-11-01T00:10:56.451Z,0
2018-11-01T00:12:05.892Z,0
2018-11-01T00:13:15.584Z,0
2018-11-01T00:14:25.262Z,0
2018-11-01T00:15:34.960Z,0
2018-11-01T00:16:44.640Z,0
2018-11-01T00:17:54.581Z,0
2018-11-01T00:19:04.020Z,0
2018-11-01T00:20:13.734Z,0
2018-11-01T00:21:23.417Z,0
2018-11-01T00:22:33.353Z,0
2018-11-01T00:23:43.307Z,0
2018-11-01T00:24:52.991Z,0
2018-11-01T00:26:02.685Z,0
2018-11-01T00:27:11.851Z,0
2018-11-01T00:28:21.279Z,0
2018-11-01T00:29:31.217Z,0
2018-11-01T00:30:41.160Z,0
2018-11-01T00:31:50.867Z,0
2018-11-01T00:33:00.821Z,0
2018-11-01T00:34:10.516Z,0
2018-11-01T00:35:20.229Z,0
2018-11-01T00:36:29.923Z,0
2018-11-01T00:37:39.354Z,0
2018-11-01T00:38:49.289Z,0
2018-11-01T00:39:58.972Z,0
2018-11-01T00:41:08.651Z,0
2018-11-01T00:42:18.658Z,0
2018-11-01T00:43:28.345Z,0
2018-11-01T00:44:38.034Z,0
2018-11-01T00:45:47.984Z,0
2018-11-01T00:46:57.671Z,0
2018-11-01T00:48:07.396Z,0
2018-11-01T00:49:16.825Z,0
2018-11-01T00:50:26.499Z,0
2018-11-01T00:51:36.180Z,0
2018-11-01T00:52:45.609Z,0
2018-11-01T00:53:55.291Z,0
2018-11-01T00:55:04.974Z,0
2018-11-01T00:56:14.920Z,0
2018-11-01T00:57:24.343Z,0
2018-11-01T00:58:34.039Z,0
2018-11-01T00:59:43.739Z,0
2018-11-01T01:00:53.688Z,0
2018-11-01T01:02:03.374Z,0
2018-11-01T01:03:12.540Z,0
2018-11-01T01:04:22.236Z,0
2018-11-01T01:05:31.665Z,0
2018-11-01T01:06:41.349Z,0
2018-11-01T01:07:50.790Z,0
2018-11-01T01:09:00.221Z,0
2018-11-01T01:10:09.402Z,0
2018-11-01T01:11:19.097Z,0
2018-11-01T01:12:28.774Z,0
2018-11-01T01:13:38.449Z,0
2018-11-01T01:14:48.408Z,0
2018-11-01T01:15:58.102Z,0
2018-11-01T01:17:08.066Z,0
2018-11-01T01:18:18.016Z,0
2018-11-01T01:19:27.692Z,0
2018-11-01T01:20:37.645Z,0
2018-11-01T01:21:47.325Z,0
2018-11-01T01:22:57.285Z,0
2018-11-01T01:24:06.965Z,0
2018-11-01T01:25:16.393Z,0
2018-11-01T01:26:26.083Z,0
2018-11-01T01:27:35.778Z,0
2018-11-01T01:28:44.952Z,0
2018-11-01T01:29:54.642Z,0
2018-11-01T01:31:04.066Z,0
2018-11-01T01:32:13.759Z,0
2018-11-01T01:33:23.720Z,0
2018-11-01T01:34:34.091Z,0
2018-11-01T01:35:43.608Z,0
2018-11-01T01:36:53.543Z,0
2018-11-01T01:38:03.241Z,0
2018-11-01T01:39:12.661Z,0
2018-11-01T01:40:22.598Z,0
2018-11-01T01:41:32.298Z,0
2018-11-01T01:42:41.730Z,0
2018-11-01T01:43:51.701Z,0
2018-11-01T01:45:01.639Z,0
2018-11-01T01:46:11.584Z,0
2018-11-01T01:47:21.547Z,0
2018-11-01T01:48:31.233Z,0
2018-11-01T01:49:40.410Z,0
2018-11-01T01:50:50.265Z,0
2018-11-01T01:51:59.875Z,0
2018-11-01T01:53:09.806Z,0
2018-11-01T01:54:19.226Z,0
2018-11-01T01:55:28.914Z,0
2018-11-01T01:56:38.340Z,0
2018-11-01T01:57:48.300Z,0
2018-11-01T01:58:58.044Z,0
2018-11-01T02:00:07.989Z,0
2018-11-01T02:01:17.952Z,0
2018-11-01T02:02:27.895Z,0
2018-11-01T02:03:37.824Z,0
2018-11-01T02:04:47.762Z,0
2018-11-01T02:05:57.704Z,0
2018-11-01T02:07:07.658Z,0
2018-11-01T02:08:17.624Z,0
2018-11-01T02:09:27.333Z,0
2018-11-01T02:10:37.024Z,0
2018-11-01T02:11:46.740Z,0
2018-11-01T02:12:56.737Z,0
2018-11-01T02:14:06.426Z,0
2018-11-01T02:15:16.367Z,0
2018-11-01T02:16:26.305Z,0
2018-11-01T02:17:35.492Z,0
2018-11-01T02:18:44.926Z,0
2018-11-01T02:19:54.862Z,0
2018-11-01T02:21:04.532Z,0
2018-11-01T02:22:13.958Z,0
2018-11-01T02:23:23.901Z,0
2018-11-01T02:24:33.318Z,0
2018-11-01T02:25:43.277Z,0
2018-11-01T02:26:53.227Z,0
2018-11-01T02:28:02.978Z,0
2018-11-01T02:29:12.667Z,0
2018-11-01T02:30:22.615Z,0
2018-11-01T02:31:32.764Z,0
2018-11-01T02:32:42.713Z,0
2018-11-01T02:33:52.659Z,0
2018-11-01T02:35:02.360Z,0
2018-11-01T02:36:11.782Z,0
2018-11-01T02:37:21.204Z,0
2018-11-01T02:38:30.783Z,0
2018-11-01T02:39:40.475Z,0
2018-11-01T02:40:50.436Z,0
2018-11-01T02:42:00.120Z,0
2018-11-01T02:43:10.067Z,0
2018-11-01T02:44:19.498Z,0
2018-11-01T02:45:29.446Z,0
2018-11-01T02:46:39.407Z,0
2018-11-01T02:47:49.364Z,0
2018-11-01T02:48:59.055Z,0
2018-11-01T02:50:08.490Z,0
2018-11-01T02:51:18.444Z,0
2018-11-01T02:52:28.143Z,0
2018-11-01T02:53:37.563Z,0
2018-11-01T02:54:47.506Z,0
2018-11-01T02:55:57.185Z,0
2018-11-01T02:57:06.853Z,0
2018-11-01T02:58:16.545Z,0
2018-11-01T02:59:26.544Z,0
2018-11-01T03:00:36.537Z,0
2018-11-01T03:01:46.488Z,0
2018-11-01T03:02:56.183Z,0
2018-11-01T03:04:05.385Z,0
2018-11-01T03:05:14.548Z,0
2018-11-01T03:06:24.499Z,0
2018-11-01T03:07:34.169Z,0
2018-11-01T03:08:44.123Z,0
2018-11-01T03:09:53.817Z,0
2018-11-01T03:11:03.493Z,0
2018-11-01T03:12:13.436Z,0
2018-11-01T03:13:23.384Z,0
2018-11-01T03:14:33.079Z,0
2018-11-01T03:15:42.761Z,0
2018-11-01T03:16:52.606Z,0
2018-11-01T03:18:02.561Z,0
2018-11-01T03:19:11.733Z,0
2018-11-01T03:20:21.662Z,0
2018-11-01T03:21:31.587Z,0
2018-11-01T03:22:41.643Z,0
2018-11-01T03:23:50.830Z,0
2018-11-01T03:25:00.504Z,0
2018-11-01T03:26:10.454Z,0
2018-11-01T03:27:19.882Z,0
2018-11-01T03:28:29.844Z,0
2018-11-01T03:29:39.520Z,0
2018-11-01T03:30:49.468Z,0
2018-11-01T03:31:59.183Z,0
2018-11-01T03:33:08.862Z,0
2018-11-01T03:34:18.677Z,0
2018-11-01T03:35:28.505Z,0
2018-11-01T03:36:38.185Z,0
2018-11-01T03:37:48.140Z,0
2018-11-01T03:38:58.625Z,0
2018-11-01T03:40:08.670Z,0
2018-11-01T03:41:18.364Z,0
2018-11-01T03:42:28.050Z,0
2018-11-01T03:43:38.001Z,0
2018-11-01T03:44:47.955Z,0
2018-11-01T03:45:58.415Z,0
2018-11-01T03:47:08.119Z,0
2018-11-01T03:48:18.070Z,0
2018-11-01T03:49:28.008Z,0
2018-11-01T03:50:37.689Z,0
2018-11-01T03:51:47.681Z,0
2018-11-01T03:52:57.698Z,0
2018-11-01T03:54:07.456Z,0
2018-11-01T03:55:17.149Z,0
2018-11-01T03:56:27.076Z,0
2018-11-01T03:57:36.762Z,0
2018-11-01T03:58:46.454Z,0
2018-11-01T03:59:56.152Z,0
2018-11-01T04:01:06.179Z,0
2018-11-01T04:02:15.870Z,0
2018-11-01T04:03:25.828Z,0
2018-11-01T04:04:35.257Z,0
2018-11-01T04:05:44.955Z,0
2018-11-01T04:06:54.646Z,0
2018-11-01T04:08:04.063Z,0
2018-11-01T04:09:13.756Z,0
2018-11-01T04:10:23.491Z,0
2018-11-01T04:11:33.443Z,0
2018-11-01T04:12:43.131Z,0
2018-11-01T04:13:53.821Z,0
2018-11-01T04:15:03.460Z,0
2018-11-01T04:16:13.216Z,0
2018-11-01T04:17:23.168Z,0
2018-11-01T04:18:32.868Z,0
2018-11-01T04:19:42.555Z,0
2018-11-01T04:20:52.246Z,0
2018-11-01T04:22:01.676Z,0
2018-11-01T04:23:10.994Z,0
2018-11-01T04:24:20.685Z,0
2018-11-01T04:25:30.395Z,0
2018-11-01T04:26:39.811Z,0
2018-11-01T04:27:49.998Z,0
2018-11-01T04:29:00.203Z,0
2018-11-01T04:30:10.182Z,0
2018-11-01T04:31:20.123Z,0
2018-11-01T04:32:29.557Z,0
2018-11-01T04:33:39.943Z,0
2018-11-01T04:34:50.088Z,0
2018-11-01T04:36:00.038Z,0
2018-11-01T04:37:09.985Z,0
2018-11-01T04:38:19.677Z,0
2018-11-01T04:39:29.113Z,0
2018-11-01T04:40:38.998Z,0
2018-11-01T04:41:48.034Z,0
2018-11-01T04:42:57.544Z,0
2018-11-01T04:44:07.090Z,0
2018-11-01T04:45:17.087Z,0
2018-11-01T04:46:26.712Z,0
2018-11-01T04:47:37.330Z,0
2018-11-01T04:48:46.936Z,0
2018-11-01T04:49:56.371Z,0
2018-11-01T04:51:06.050Z,0
2018-11-01T04:52:15.765Z,0
2018-11-01T04:53:25.754Z,0
2018-11-01T04:54:35.444Z,0
2018-11-01T04:55:45.397Z,0
2018-11-01T04:56:55.089Z,0
2018-11-01T04:58:04.250Z,0
2018-11-01T04:59:13.677Z,0
2018-11-01T05:00:23.375Z,0
2018-11-01T05:01:33.062Z,0
2018-11-01T05:02:42.746Z,0
2018-11-01T05:03:52.830Z,0
2018-11-01T05:05:02.811Z,0
2018-11-01T05:06:12.854Z,0
2018-11-01T05:07:22.286Z,0
2018-11-01T05:08:32.231Z,0
2018-11-01T05:09:42.177Z,0
2018-11-01T05:10:51.609Z,0
2018-11-01T05:12:01.301Z,0
2018-11-01T05:13:10.738Z,0
2018-11-01T05:14:20.426Z,0
2018-11-01T05:15:30.569Z,0
2018-11-01T05:16:40.519Z,0
2018-11-01T05:17:50.208Z,0
2018-11-01T05:18:59.885Z,0
2018-11-01T05:20:09.995Z,0
2018-11-01T05:21:19.675Z,0
2018-11-01T05:22:29.601Z,0
2018-11-01T05:23:39.287Z,0
2018-11-01T05:24:49.530Z,0
2018-11-01T05:26:00.057Z,0
2018-11-01T05:27:09.849Z,0
2018-11-01T05:28:19.787Z,0
2018-11-01T05:29:30.045Z,0
2018-11-01T05:30:39.735Z,0
2018-11-01T05:31:49.681Z,0
2018-11-01T05:32:59.386Z,0
2018-11-01T05:34:09.081Z,0
2018-11-01T05:35:18.771Z,0
2018-11-01T05:36:28.212Z,0
2018-11-01T05:37:38.159Z,0
2018-11-01T05:38:47.856Z,0
2018-11-01T05:39:57.545Z,0
2018-11-01T05:41:07.507Z,0
2018-11-01T05:42:17.577Z,0
2018-11-01T05:43:26.742Z,0
2018-11-01T05:44:36.186Z,0
2018-11-01T05:45:46.137Z,0
2018-11-01T05:46:55.848Z,0
2018-11-01T05:48:05.526Z,0
2018-11-01T05:49:14.996Z,0
2018-11-01T05:50:24.939Z,0
2018-11-01T05:51:34.891Z,0
2018-11-01T05:52:44.640Z,0
2018-11-01T05:53:54.348Z,5
2018-11-01T05:55:03.532Z,5
2018-11-01T05:56:13.198Z,5
2018-11-01T05:57:22.885Z,5
2018-11-01T05:58:32.866Z,5
2018-11-01T05:59:42.865Z,5
2018-11-01T06:00:52.839Z,10
2018-11-01T06:02:02.789Z,10
2018-11-01T06:03:12.507Z,10
2018-11-01T06:04:22.186Z,10
2018-11-01T06:05:32.344Z,10
2018-11-01T06:06:41.975Z,15
2018-11-01T06:07:51.417Z,15
2018-11-01T06:09:01.382Z,15
2018-11-01T06:10:11.082Z,15
2018-11-01T06:11:21.055Z,20
2018-11-01T06:12:31.305Z,20
2018-11-01T06:13:40.819Z,20
2018-11-01T06:14:50.521Z,25
2018-11-01T06:16:00.193Z,25
2018-11-01T06:17:10.157Z,25
2018-11-01T06:18:20.103Z,30
2018-11-01T06:19:29.791Z,30
2018-11-01T06:20:40.100Z,30
2018-11-01T06:21:49.233Z,35
2018-11-01T06:22:59.198Z,35
2018-11-01T06:24:08.629Z,40
2018-11-01T06:25:18.091Z,40
2018-11-01T06:26:27.782Z,45
2018-11-01T06:27:37.210Z,45
2018-11-01T06:28:47.159Z,50
2018-11-01T06:29:56.850Z,55
2018-11-01T06:31:06.011Z,55
2018-11-01T06:32:15.970Z,60
2018-11-01T06:33:25.909Z,60
2018-11-01T06:34:35.351Z,65
2018-11-01T06:35:44.515Z,65
2018-11-01T06:36:54.463Z,70
2018-11-01T06:38:04.403Z,75
2018-11-01T06:39:14.104Z,75
2018-11-01T06:40:23.793Z,80
2018-11-01T06:41:33.483Z,80
2018-11-01T06:42:42.917Z,80
2018-11-01T06:43:52.373Z,85
2018-11-01T06:45:02.712Z,85
2018-11-01T06:46:12.665Z,90
2018-11-01T06:47:22.371Z,95
2018-11-01T06:48:32.322Z,100
2018-11-01T06:49:42.001Z,105
2018-11-01T06:50:51.672Z,110
2018-11-01T06:52:00.851Z,115
2018-11-01T06:53:10.802Z,120
2018-11-01T06:54:20.216Z,120
2018-11-01T06:55:30.157Z,120
2018-11-01T06:56:40.116Z,125
2018-11-01T06:57:50.069Z,125
2018-11-01T06:59:00.612Z,130
2018-11-01T07:00:10.615Z,135
2018-11-01T07:01:20.303Z,135
2018-11-01T07:02:29.994Z,135
2018-11-01T07:03:39.678Z,135
2018-11-01T07:04:49.643Z,135
2018-11-01T07:05:59.809Z,135
2018-11-01T07:07:09.755Z,135
2018-11-01T07:08:19.442Z,135
2018-11-01T07:09:29.415Z,135
2018-11-01T07:10:38.858Z,135
2018-11-01T07:11:49.088Z,140
2018-11-01T07:12:58.779Z,145
2018-11-01T07:14:08.724Z,150
2018-11-01T07:15:18.440Z,155
2018-11-01T07:16:28.153Z,165
2018-11-01T07:17:40.026Z,170
2018-11-01T07:18:49.907Z,185
2018-11-01T07:19:59.871Z,190
2018-11-01T07:21:09.576Z,205
2018-11-01T07:22:19.522Z,215
2018-11-01T07:23:29.477Z,225
2018-11-01T07:24:38.912Z,230
2018-11-01T07:25:48.889Z,235
2018-11-01T07:26:58.666Z,235
2018-11-01T07:28:08.384Z,235
2018-11-01T07:29:18.319Z,235
2018-11-01T07:30:28.274Z,230
2018-11-01T07:31:38.229Z,225
2018-11-01T07:32:48.630Z,230
2018-11-01T07:33:58.362Z,235
2018-11-01T07:35:08.068Z,240
2018-11-01T07:36:17.492Z,245
2018-11-01T07:37:27.198Z,255
2018-11-01T07:38:37.158Z,260
2018-11-01T07:39:47.359Z,265
2018-11-01T07:40:57.295Z,275
2018-11-01T07:42:06.754Z,265
2018-11-01T07:43:16.196Z,265
2018-11-01T07:44:25.643Z,255
2018-11-01T07:45:35.329Z,250
2018-11-01T07:46:45.314Z,260
2018-11-01T07:47:55.275Z,265
2018-11-01T07:49:04.971Z,285
2018-11-01T07:50:14.678Z,315
2018-11-01T07:51:24.628Z,355
2018-11-01T07:52:33.856Z,370
2018-11-01T07:53:43.235Z,370
2018-11-01T07:54:52.934Z,385
2018-11-01T07:56:02.371Z,420
2018-11-01T07:57:12.336Z,440
2018-11-01T07:58:21.948Z,440
2018-11-01T07:59:31.717Z,440
2018-11-01T08:00:41.716Z,450
2018-11-01T08:01:51.655Z,450
2018-11-01T08:03:00.821Z,415
2018-11-01T08:04:10.248Z,430
2018-11-01T08:05:19.944Z,425
2018-11-01T08:06:29.636Z,410
2018-11-01T08:07:39.322Z,415
2018-11-01T08:08:48.511Z,420
2018-11-01T08:09:58.462Z,420
2018-11-01T08:11:08.404Z,415
2018-11-01T08:12:17.579Z,395
2018-11-01T08:13:27.554Z,355
2018-11-01T08:14:37.253Z,330
2018-11-01T08:15:47.194Z,345
2018-11-01T08:16:57.145Z,335
2018-11-01T08:18:06.845Z,315
2018-11-01T08:19:16.529Z,305
2018-11-01T08:20:26.779Z,310
2018-11-01T08:21:36.574Z,370
2018-11-01T08:22:46.285Z,340
2018-11-01T08:23:56.231Z,320
2018-11-01T08:25:06.211Z,315
2018-11-01T08:26:15.643Z,325
2018-11-01T08:27:25.322Z,320
2018-11-01T08:28:34.507Z,330
2018-11-01T08:29:44.456Z,340
2018-11-01T08:30:54.414Z,350
2018-11-01T08:32:04.103Z,340
2018-11-01T08:33:13.800Z,330
2018-11-01T08:34:22.972Z,325
2018-11-01T08:35:32.942Z,325
2018-11-01T08:36:42.373Z,325
2018-11-01T08:37:52.319Z,320
2018-11-01T08:39:01.238Z,320
2018-11-01T08:40:10.932Z,320
2018-11-01T08:41:20.668Z,320
2018-11-01T08:42:30.367Z,325
2018-11-01T08:43:40.308Z,330
2018-11-01T08:44:50.252Z,335
2018-11-01T08:46:00.186Z,340
2018-11-01T08:47:09.870Z,340
2018-11-01T08:48:19.564Z,345
2018-11-01T08:49:29.822Z,355
2018-11-01T08:50:39.619Z,365
2018-11-01T08:51:49.322Z,395
2018-11-01T08:52:58.759Z,400
2018-11-01T08:54:08.710Z,395
2018-11-01T08:55:18.433Z,400
2018-11-01T08:56:28.121Z,390
2018-11-01T08:57:38.073Z,390
2018-11-01T08:58:47.764Z,400
2018-11-01T08:59:57.714Z,415
2018-11-01T09:01:07.468Z,465
2018-11-01T09:02:17.420Z,565
2018-11-01T09:03:27.370Z,575
2018-11-01T09:04:37.327Z,590
2018-11-01T09:05:47.274Z,650
2018-11-01T09:06:57.224Z,815
2018-11-01T09:08:07.370Z,860
2018-11-01T09:09:16.971Z,920
2018-11-01T09:10:27.403Z,845
2018-11-01T09:11:37.360Z,845
2018-11-01T09:12:47.758Z,910
2018-11-01T09:13:57.239Z,920
2018-11-01T09:15:07.190Z,1085
2018-11-01T09:16:16.898Z,1445
2018-11-01T09:17:26.852Z,1405
2018-11-01T09:18:36.532Z,1460
2018-11-01T09:19:46.484Z,1500
2018-11-01T09:20:55.909Z,1450
2018-11-01T09:22:05.864Z,1440
2018-11-01T09:23:15.308Z,1480
2018-11-01T09:24:25.010Z,1640
2018-11-01T09:25:34.967Z,1585
2018-11-01T09:26:45.091Z,1495
2018-11-01T09:27:55.114Z,1340
2018-11-01T09:29:04.561Z,1475
2018-11-01T09:30:14.268Z,1500
2018-11-01T09:31:23.979Z,1510
2018-11-01T09:32:33.668Z,1525
2018-11-01T09:33:43.378Z,1520
2018-11-01T09:34:53.337Z,1365
2018-11-01T09:36:03.484Z,1275
2018-11-01T09:37:13.199Z,1260
2018-11-01T09:38:23.153Z,1605
2018-11-01T09:39:32.604Z,1455
2018-11-01T09:40:41.771Z,1370
2018-11-01T09:41:51.728Z,1330
2018-11-01T09:43:01.470Z,1285
2018-11-01T09:44:11.433Z,1215
2018-11-01T09:45:21.396Z,1100
2018-11-01T09:46:32.966Z,1040
2018-11-01T09:47:44.333Z,1015
2018-11-01T09:48:54.283Z,920
2018-11-01T09:50:04.254Z,915
2018-11-01T09:51:13.713Z,990
2018-11-01T09:52:23.683Z,820
2018-11-01T09:53:33.394Z,910
2018-11-01T09:54:43.095Z,915
2018-11-01T09:55:54.084Z,920
2018-11-01T09:57:03.944Z,905
2018-11-01T09:58:13.652Z,875
2018-11-01T09:59:23.601Z,875
2018-11-01T10:00:33.604Z,865
2018-11-01T10:01:42.547Z,805
2018-11-01T10:02:51.992Z,810
2018-11-01T10:04:01.455Z,845
2018-11-01T10:05:11.389Z,815
2018-11-01T10:06:21.261Z,810
2018-11-01T10:07:31.247Z,810
2018-11-01T10:08:40.951Z,760
2018-11-01T10:09:50.592Z,860
2018-11-01T10:11:00.314Z,800
2018-11-01T10:12:10.003Z,780
2018-11-01T10:13:19.707Z,765
2018-11-01T10:14:29.425Z,790
2018-11-01T10:15:41.005Z,860
2018-11-01T10:16:50.274Z,1030
2018-11-01T10:18:03.316Z,770
2018-11-01T10:19:13.332Z,690
2018-11-01T10:20:22.781Z,700
2018-11-01T10:21:33.315Z,720
2018-11-01T10:22:43.822Z,870
2018-11-01T10:23:53.910Z,1000
2018-11-01T10:25:03.389Z,1195
2018-11-01T10:26:13.119Z,1415
2018-11-01T10:27:29.283Z,1735
2018-11-01T10:28:38.992Z,1830
2018-11-01T10:29:48.440Z,1355
2018-11-01T10:30:57.880Z,1870
2018-11-01T10:32:07.071Z,1915
2018-11-01T10:33:17.024Z,1880
2018-11-01T10:34:26.472Z,1885
2018-11-01T10:35:36.444Z,1970
2018-11-01T10:36:46.393Z,1390
2018-11-01T10:37:56.116Z,1375
2018-11-01T10:39:05.307Z,1365
2018-11-01T10:40:15.264Z,1510
2018-11-01T10:41:24.461Z,1340
2018-11-01T10:42:34.178Z,1360
2018-11-01T10:43:43.885Z,1255
2018-11-01T10:44:53.325Z,930
2018-11-01T10:46:03.032Z,1380
2018-11-01T10:47:12.722Z,1190
2018-11-01T10:48:22.164Z,1200
2018-11-01T10:49:32.121Z,1270
2018-11-01T10:50:41.837Z,1230
2018-11-01T10:51:51.803Z,990
2018-11-01T10:53:01.251Z,750
2018-11-01T10:54:10.857Z,615
2018-11-01T10:55:20.376Z,685
2018-11-01T10:56:29.306Z,1395
2018-11-01T10:57:39.002Z,1450
2018-11-01T10:58:48.948Z,1155
2018-11-01T10:59:59.299Z,765
2018-11-01T11:01:09.108Z,1055
2018-11-01T11:02:18.877Z,1060
2018-11-01T11:03:28.573Z,1130
2018-11-01T11:04:38.283Z,1170
2018-11-01T11:05:48.241Z,1185
2018-11-01T11:06:58.199Z,1075
2018-11-01T11:08:07.999Z,990
2018-11-01T11:09:17.706Z,965
2018-11-01T11:10:27.146Z,975
2018-11-01T11:11:37.100Z,935
2018-11-01T11:12:46.536Z,905
2018-11-01T11:13:55.974Z,940
2018-11-01T11:15:05.161Z,860
2018-11-01T11:16:14.857Z,815
2018-11-01T11:17:24.814Z,700
2018-11-01T11:18:34.554Z,650
2018-11-01T11:19:43.999Z,605
2018-11-01T11:20:56.469Z,565
2018-11-01T11:22:06.753Z,525
2018-11-01T11:23:16.185Z,495
2018-11-01T11:24:25.867Z,470
2018-11-01T11:25:35.295Z,450
2018-11-01T11:26:45.265Z,435
2018-11-01T11:27:54.953Z,415
2018-11-01T11:29:04.423Z,400
2018-11-01T11:30:14.391Z,390
2018-11-01T11:31:24.440Z,385
2018-11-01T11:32:33.887Z,370
2018-11-01T11:33:43.841Z,360
2018-11-01T11:34:53.817Z,350
2018-11-01T11:36:04.461Z,330
2018-11-01T11:37:14.160Z,320
2018-11-01T11:38:23.598Z,315
2018-11-01T11:39:33.768Z,310
2018-11-01T11:40:43.803Z,315
2018-11-01T11:41:52.987Z,310
2018-11-01T11:43:02.691Z,315
2018-11-01T11:44:12.675Z,315
2018-11-01T11:45:22.648Z,315
2018-11-01T11:46:32.352Z,310
2018-11-01T11:47:42.065Z,305
2018-11-01T11:48:52.031Z,300
2018-11-01T11:50:02.002Z,295
2018-11-01T11:51:11.756Z,290
2018-11-01T11:52:21.715Z,285
2018-11-01T11:53:31.681Z,285
2018-11-01T11:54:41.123Z,290
2018-11-01T11:55:50.818Z,290
2018-11-01T11:57:00.796Z,290
2018-11-01T11:58:10.508Z,290
2018-11-01T11:59:19.950Z,290
2018-11-01T12:00:29.385Z,290
2018-11-01T12:01:39.087Z,290
2018-11-01T12:02:48.791Z,290
2018-11-01T12:03:58.485Z,290
2018-11-01T12:05:08.013Z,295
2018-11-01T12:06:19.265Z,300
2018-11-01T12:07:29.354Z,300
2018-11-01T12:08:39.046Z,305
2018-11-01T12:09:48.488Z,305
2018-11-01T12:10:58.445Z,300
2018-11-01T12:12:08.406Z,295
2018-11-01T12:13:18.095Z,290
2018-11-01T12:14:28.421Z,285
2018-11-01T12:15:38.122Z,280
2018-11-01T12:16:47.807Z,275
2018-11-01T12:17:57.499Z,275
2018-11-01T12:19:07.197Z,270
2018-11-01T12:20:17.153Z,265
2018-11-01T12:21:27.116Z,260
2018-11-01T12:22:37.391Z,255
2018-11-01T12:23:47.079Z,255
2018-11-01T12:24:57.264Z,250
2018-11-01T12:26:06.962Z,240
2018-11-01T12:27:16.929Z,235
2018-11-01T12:28:27.453Z,230
2018-11-01T12:29:37.144Z,220
2018-11-01T12:30:46.607Z,215
2018-11-01T12:31:56.316Z,210
2018-11-01T12:33:06.257Z,200
2018-11-01T12:34:15.959Z,195
2018-11-01T12:35:25.864Z,190
2018-11-01T12:36:35.378Z,190
2018-11-01T12:37:45.082Z,190
2018-11-01T12:38:54.781Z,190
2018-11-01T12:40:04.746Z,190
2018-11-01T12:41:14.200Z,190
2018-11-01T12:42:24.173Z,190
2018-11-01T12:43:33.626Z,190
2018-11-01T12:44:43.334Z,190
2018-11-01T12:45:53.037Z,190
2018-11-01T12:47:02.488Z,195
2018-11-01T12:48:12.193Z,195
2018-11-01T12:49:22.150Z,195
2018-11-01T12:50:32.271Z,195
2018-11-01T12:51:41.960Z,190
2018-11-01T12:52:51.648Z,190
2018-11-01T12:54:01.342Z,190
2018-11-01T12:55:10.518Z,185
2018-11-01T12:56:20.795Z,185
2018-11-01T12:57:30.158Z,185
2018-11-01T12:58:40.125Z,180
2018-11-01T12:59:49.293Z,185
2018-11-01T13:00:59.234Z,185
2018-11-01T13:02:08.927Z,190
2018-11-01T13:03:18.881Z,185
2018-11-01T13:04:28.834Z,180
2018-11-01T13:05:38.897Z,180
2018-11-01T13:06:48.589Z,175
2018-11-01T13:07:58.290Z,175
2018-11-01T13:09:07.985Z,175
2018-11-01T13:10:17.953Z,175
2018-11-01T13:11:27.901Z,175
2018-11-01T13:12:37.609Z,180
2018-11-01T13:13:47.053Z,185
2018-11-01T13:14:56.789Z,185
2018-11-01T13:16:06.492Z,185
2018-11-01T13:17:16.197Z,185
2018-11-01T13:18:25.919Z,185
2018-11-01T13:19:35.867Z,185
2018-11-01T13:20:45.574Z,185
2018-11-01T13:21:55.261Z,180
2018-11-01T13:23:04.953Z,175
2018-11-01T13:24:14.650Z,170
2018-11-01T13:25:24.358Z,165
2018-11-01T13:26:34.090Z,160
2018-11-01T13:27:44.053Z,155
2018-11-01T13:28:53.751Z,150
2018-11-01T13:30:03.517Z,145
2018-11-01T13:31:12.960Z,140
2018-11-01T13:32:22.923Z,130
2018-11-01T13:33:32.668Z,125
2018-11-01T13:34:42.304Z,125
2018-11-01T13:35:52.010Z,120
2018-11-01T13:37:01.701Z,115
2018-11-01T13:38:11.392Z,110
2018-11-01T13:39:21.030Z,110
2018-11-01T13:40:33.198Z,110
2018-11-01T13:41:44.069Z,115
2018-11-01T13:42:53.835Z,115
2018-11-01T13:44:03.281Z,120
2018-11-01T13:45:13.252Z,120
2018-11-01T13:46:23.144Z,125
2018-11-01T13:47:33.722Z,125
2018-11-01T13:48:43.870Z,125
2018-11-01T13:49:53.580Z,125
2018-11-01T13:51:03.541Z,125
2018-11-01T13:52:13.507Z,125
2018-11-01T13:53:22.434Z,120
2018-11-01T13:54:32.681Z,120
2018-11-01T13:55:42.414Z,120
2018-11-01T13:56:52.609Z,120
2018-11-01T13:58:02.296Z,115
2018-11-01T13:59:12.267Z,115
2018-11-01T14:00:22.210Z,115
2018-11-01T14:01:31.965Z,115
2018-11-01T14:02:41.910Z,115
2018-11-01T14:03:51.602Z,110
2018-11-01T14:05:01.287Z,105
2018-11-01T14:06:11.557Z,105
2018-11-01T14:07:21.586Z,100
2018-11-01T14:08:31.277Z,95
2018-11-01T14:09:41.255Z,95
2018-11-01T14:10:51.138Z,95
2018-11-01T14:12:01.090Z,90
2018-11-01T14:13:10.807Z,90
2018-11-01T14:14:24.199Z,85
2018-11-01T14:15:35.578Z,85
2018-11-01T14:16:44.958Z,80
2018-11-01T14:17:54.909Z,80
2018-11-01T14:19:04.872Z,75
2018-11-01T14:20:14.837Z,75
2018-11-01T14:21:24.576Z,70
2018-11-01T14:22:34.271Z,65
2018-11-01T14:23:43.475Z,65
2018-11-01T14:24:53.181Z,65
2018-11-01T14:26:02.890Z,65
2018-11-01T14:27:13.227Z,65
2018-11-01T14:28:23.269Z,60
2018-11-01T14:29:32.960Z,60
2018-11-01T14:30:42.656Z,55
2018-11-01T14:31:52.603Z,55
2018-11-01T14:33:02.568Z,50
2018-11-01T14:34:12.551Z,45
2018-11-01T14:35:22.286Z,45
2018-11-01T14:36:32.229Z,45
2018-11-01T14:37:42.186Z,45
2018-11-01T14:38:51.836Z,40
2018-11-01T14:40:01.558Z,40
2018-11-01T14:41:11.272Z,40
2018-11-01T14:42:20.980Z,40
2018-11-01T14:43:30.417Z,40
2018-11-01T14:44:40.632Z,40
2018-11-01T14:45:50.432Z,40
2018-11-01T14:47:00.131Z,40
2018-11-01T14:48:09.877Z,45
2018-11-01T14:49:19.847Z,40
2018-11-01T14:50:29.821Z,40
2018-11-01T14:51:39.847Z,40
2018-11-01T14:52:54.291Z,45
2018-11-01T14:54:08.379Z,45
2018-11-01T14:55:24.093Z,45
2018-11-01T14:56:41.604Z,45
2018-11-01T14:58:00.505Z,40
2018-11-01T14:59:18.873Z,40
2018-11-01T15:00:28.904Z,35
2018-11-01T15:01:38.609Z,35
2018-11-01T15:02:48.392Z,35
2018-11-01T15:03:58.093Z,35
2018-11-01T15:05:07.533Z,30
2018-11-01T15:06:16.960Z,30
2018-11-01T15:07:26.412Z,30
2018-11-01T15:08:36.385Z,30
2018-11-01T15:09:45.830Z,25
2018-11-01T15:10:55.548Z,25
2018-11-01T15:12:05.511Z,25
2018-11-01T15:13:15.709Z,20
2018-11-01T15:14:25.689Z,20
2018-11-01T15:15:35.452Z,20
2018-11-01T15:16:44.641Z,20
2018-11-01T15:17:54.120Z,20
2018-11-01T15:19:03.990Z,20
2018-11-01T15:20:12.751Z,20
2018-11-01T15:21:22.793Z,20
2018-11-01T15:22:32.744Z,20
2018-11-01T15:23:42.468Z,15
2018-11-01T15:24:51.939Z,15
2018-11-01T15:26:01.846Z,15
2018-11-01T15:27:11.274Z,15
2018-11-01T15:28:21.257Z,15
2018-11-01T15:29:30.947Z,15
2018-11-01T15:30:40.650Z,20
2018-11-01T15:31:50.621Z,20
2018-11-01T15:33:00.604Z,15
2018-11-01T15:34:10.644Z,15
2018-11-01T15:35:20.379Z,15
2018-11-01T15:36:30.173Z,15
2018-11-01T15:37:40.196Z,15
2018-11-01T15:38:50.207Z,15
2018-11-01T15:40:01.463Z,15
2018-11-01T15:41:11.415Z,15
2018-11-01T15:42:21.171Z,15
2018-11-01T15:43:30.325Z,10
2018-11-01T15:44:39.807Z,10
2018-11-01T15:45:49.533Z,5
2018-11-01T15:46:59.533Z,5
2018-11-01T15:48:09.313Z,0
2018-11-01T15:49:19.081Z,0
2018-11-01T15:50:28.813Z,0
2018-11-01T15:51:38.800Z,0
2018-11-01T15:52:48.730Z,0
2018-11-01T15:53:58.175Z,0
2018-11-01T15:55:08.159Z,0
2018-11-01T15:56:18.017Z,0
2018-11-01T15:57:28.010Z,0
2018-11-01T15:58:37.716Z,0
2018-11-01T15:59:47.956Z,0
2018-11-01T16:00:58.404Z,0
2018-11-01T16:02:09.240Z,0
2018-11-01T16:03:19.493Z,0
2018-11-01T16:04:29.475Z,0
2018-11-01T16:05:39.180Z,0
2018-11-01T16:06:48.679Z,0
2018-11-01T16:07:58.382Z,0
2018-11-01T16:09:08.079Z,0
2018-11-01T16:10:18.700Z,0
2018-11-01T16:11:28.800Z,0
2018-11-01T16:12:38.488Z,0
2018-11-01T16:13:47.952Z,0
2018-11-01T16:14:57.680Z,0
2018-11-01T16:16:07.670Z,0
2018-11-01T16:17:17.712Z,0
2018-11-01T16:18:27.679Z,0
2018-11-01T16:19:38.192Z,0
2018-11-01T16:20:48.228Z,0
2018-11-01T16:21:58.888Z,0
2018-11-01T16:23:09.363Z,0
2018-11-01T16:24:19.066Z,0
2018-11-01T16:25:28.546Z,0
2018-11-01T16:26:37.732Z,0
2018-11-01T16:27:47.441Z,0
2018-11-01T16:28:57.164Z,0
2018-11-01T16:30:06.900Z,0
2018-11-01T16:31:16.383Z,0
2018-11-01T16:32:26.377Z,0